sensor_id;sensor_type;location;lat;lon;timestamp;P1;durP1;ratioP1;P2;durP2;ratioP2
6249;SDS011;3158;52.148;11.568;2023-01-13T00:01:24;0.00;;;0.00;;
6249;SDS011;3158;52.148;11.568;2023-01-13T00:06:25;0.00;;;0.00;;
6249;SDS011;3158;52.148;11.568;2023-01-13T00:11:28;0.00;;;0.00;;
6249;SDS011;3158;52.148;11.568;2023-01-13T00:16:29;0.10;;;0.10;;
6249;SDS011;3158;52.148;11.568;2023-01-13T00:21:30;1.98;;;0.38;;
6249;SDS011;3158;52.148;11.568;2023-01-13T00:26:31;0.00;;;0.00;;
6249;SDS011;3158;52.148;11.568;2023-01-13T00:31:35;0.00;;;0.00;;
6249;SDS011;3158;52.148;11.568;2023-01-13T00:36:36;0.00;;;0.00;;
6249;SDS011;3158;52.148;11.568;2023-01-13T00:41:37;0.00;;;0.00;;
6249;SDS011;3158;52.148;11.568;2023-01-13T00:46:57;0.00;;;0.00;;
6249;SDS011;3158;52.148;11.568;2023-01-13T00:51:58;0.10;;;0.10;;
6249;SDS011;3158;52.148;11.568;2023-01-13T00:56:59;0.00;;;0.00;;
6249;SDS011;3158;52.148;11.568;2023-01-13T01:02:00;0.00;;;0.00;;
6249;SDS011;3158;52.148;11.568;2023-01-13T01:07:01;0.00;;;0.00;;
6249;SDS011;3158;52.148;11.568;2023-01-13T01:12:02;0.00;;;0.00;;
6249;SDS011;3158;52.148;11.568;2023-01-13T01:17:03;0.00;;;0.00;;
6249;SDS011;3158;52.148;11.568;2023-01-13T01:22:04;0.10;;;0.10;;
6249;SDS011;3158;52.148;11.568;2023-01-13T01:27:05;0.20;;;0.10;;
6249;SDS011;3158;52.148;11.568;2023-01-13T01:32:06;0.00;;;0.00;;
6249;SDS011;3158;52.148;11.568;2023-01-13T01:37:08;0.00;;;0.00;;
6249;SDS011;3158;52.148;11.568;2023-01-13T01:42:13;0.00;;;0.00;;
6249;SDS011;3158;52.148;11.568;2023-01-13T01:47:33;0.00;;;0.00;;
6249;SDS011;3158;52.148;11.568;2023-01-13T01:52:36;0.00;;;0.00;;
6249;SDS011;3158;52.148;11.568;2023-01-13T01:57:39;0.00;;;0.00;;
6249;SDS011;3158;52.148;11.568;2023-01-13T02:02:42;0.00;;;0.00;;
6249;SDS011;3158;52.148;11.568;2023-01-13T02:07:45;0.00;;;0.00;;
6249;SDS011;3158;52.148;11.568;2023-01-13T02:12:47;0.00;;;0.00;;
6249;SDS011;3158;52.148;11.568;2023-01-13T02:17:55;0.00;;;0.00;;
6249;SDS011;3158;52.148;11.568;2023-01-13T02:23:11;1.45;;;0.00;;
6249;SDS011;3158;52.148;11.568;2023-01-13T02:34:40;2.03;;;0.30;;
6249;SDS011;3158;52.148;11.568;2023-01-13T02:44:47;1.35;;;0.00;;
6249;SDS011;3158;52.148;11.568;2023-01-13T02:49:53;0.00;;;0.00;;
6249;SDS011;3158;52.148;11.568;2023-01-13T02:54:57;0.55;;;0.00;;
6249;SDS011;3158;52.148;11.568;2023-01-13T03:00:02;0.00;;;0.00;;
6249;SDS011;3158;52.148;11.568;2023-01-13T03:05:04;0.00;;;0.00;;
6249;SDS011;3158;52.148;11.568;2023-01-13T03:10:17;0.00;;;0.00;;
6249;SDS011;3158;52.148;11.568;2023-01-13T03:15:23;0.03;;;0.03;;
6249;SDS011;3158;52.148;11.568;2023-01-13T03:20:31;0.25;;;0.10;;
6249;SDS011;3158;52.148;11.568;2023-01-13T03:25:36;0.00;;;0.00;;
6249;SDS011;3158;52.148;11.568;2023-01-13T03:30:43;0.20;;;0.20;;
6249;SDS011;3158;52.148;11.568;2023-01-13T03:35:49;0.20;;;0.20;;
6249;SDS011;3158;52.148;11.568;2023-01-13T03:40:52;0.20;;;0.20;;
6249;SDS011;3158;52.148;11.568;2023-01-13T03:45:55;0.20;;;0.20;;
6249;SDS011;3158;52.148;11.568;2023-01-13T03:51:03;0.10;;;0.10;;
6249;SDS011;3158;52.148;11.568;2023-01-13T03:56:16;0.10;;;0.10;;
6249;SDS011;3158;52.148;11.568;2023-01-13T04:01:21;0.00;;;0.00;;
6249;SDS011;3158;52.148;11.568;2023-01-13T04:06:28;0.03;;;0.03;;
6249;SDS011;3158;52.148;11.568;2023-01-13T04:11:31;0.95;;;0.10;;
6249;SDS011;3158;52.148;11.568;2023-01-13T04:16:33;0.08;;;0.08;;
6249;SDS011;3158;52.148;11.568;2023-01-13T04:21:35;0.85;;;0.00;;
6249;SDS011;3158;52.148;11.568;2023-01-13T04:26:36;0.00;;;0.00;;
6249;SDS011;3158;52.148;11.568;2023-01-13T04:31:37;0.00;;;0.00;;
6249;SDS011;3158;52.148;11.568;2023-01-13T04:36:38;0.10;;;0.10;;
6249;SDS011;3158;52.148;11.568;2023-01-13T04:41:39;0.08;;;0.08;;
6249;SDS011;3158;52.148;11.568;2023-01-13T04:46:58;3.85;;;0.20;;
6249;SDS011;3158;52.148;11.568;2023-01-13T04:51:59;0.50;;;0.40;;
6249;SDS011;3158;52.148;11.568;2023-01-13T04:57:02;0.10;;;0.10;;
6249;SDS011;3158;52.148;11.568;2023-01-13T05:02:03;0.05;;;0.05;;
6249;SDS011;3158;52.148;11.568;2023-01-13T05:07:07;0.22;;;0.10;;
6249;SDS011;3158;52.148;11.568;2023-01-13T05:12:08;0.10;;;0.10;;
6249;SDS011;3158;52.148;11.568;2023-01-13T05:17:28;0.10;;;0.10;;
6249;SDS011;3158;52.148;11.568;2023-01-13T05:22:30;0.00;;;0.00;;
6249;SDS011;3158;52.148;11.568;2023-01-13T05:27:51;0.08;;;0.08;;
6249;SDS011;3158;52.148;11.568;2023-01-13T05:32:53;2.35;;;0.10;;
6249;SDS011;3158;52.148;11.568;2023-01-13T05:37:54;0.05;;;0.05;;
6249;SDS011;3158;52.148;11.568;2023-01-13T05:43:02;1.77;;;0.10;;
6249;SDS011;3158;52.148;11.568;2023-01-13T05:48:20;0.10;;;0.10;;
6249;SDS011;3158;52.148;11.568;2023-01-13T05:53:21;0.10;;;0.10;;
6249;SDS011;3158;52.148;11.568;2023-01-13T05:58:23;0.43;;;0.10;;
6249;SDS011;3158;52.148;11.568;2023-01-13T06:03:25;0.08;;;0.03;;
6249;SDS011;3158;52.148;11.568;2023-01-13T06:08:26;0.00;;;0.00;;
6249;SDS011;3158;52.148;11.568;2023-01-13T06:13:27;0.28;;;0.10;;
6249;SDS011;3158;52.148;11.568;2023-01-13T06:18:30;0.35;;;0.10;;
6249;SDS011;3158;52.148;11.568;2023-01-13T06:23:31;0.30;;;0.15;;
6249;SDS011;3158;52.148;11.568;2023-01-13T06:28:34;0.20;;;0.20;;
6249;SDS011;3158;52.148;11.568;2023-01-13T06:33:39;1.67;;;0.20;;
6249;SDS011;3158;52.148;11.568;2023-01-13T06:38:41;0.40;;;0.17;;
6249;SDS011;3158;52.148;11.568;2023-01-13T06:43:43;0.28;;;0.28;;
6249;SDS011;3158;52.148;11.568;2023-01-13T06:48:44;3.78;;;0.20;;
6249;SDS011;3158;52.148;11.568;2023-01-13T06:53:45;0.10;;;0.10;;
6249;SDS011;3158;52.148;11.568;2023-01-13T06:58:46;1.05;;;0.32;;
6249;SDS011;3158;52.148;11.568;2023-01-13T07:03:47;1.67;;;0.20;;
6249;SDS011;3158;52.148;11.568;2023-01-13T07:08:48;1.27;;;0.20;;
6249;SDS011;3158;52.148;11.568;2023-01-13T07:13:49;0.68;;;0.32;;
6249;SDS011;3158;52.148;11.568;2023-01-13T07:19:09;5.47;;;0.30;;
6249;SDS011;3158;52.148;11.568;2023-01-13T07:24:10;0.45;;;0.30;;
6249;SDS011;3158;52.148;11.568;2023-01-13T07:29:11;1.40;;;0.28;;
6249;SDS011;3158;52.148;11.568;2023-01-13T07:34:12;2.47;;;0.20;;
6249;SDS011;3158;52.148;11.568;2023-01-13T07:39:13;3.17;;;0.20;;
6249;SDS011;3158;52.148;11.568;2023-01-13T07:44:14;2.03;;;0.30;;
6249;SDS011;3158;52.148;11.568;2023-01-13T07:49:15;2.85;;;0.20;;
6249;SDS011;3158;52.148;11.568;2023-01-13T07:54:17;1.10;;;0.30;;
6249;SDS011;3158;52.148;11.568;2023-01-13T07:59:18;1.83;;;0.40;;
6249;SDS011;3158;52.148;11.568;2023-01-13T08:04:19;2.95;;;0.28;;
6249;SDS011;3158;52.148;11.568;2023-01-13T08:09:20;1.05;;;0.20;;
6249;SDS011;3158;52.148;11.568;2023-01-13T08:14:21;1.35;;;0.22;;
6249;SDS011;3158;52.148;11.568;2023-01-13T08:19:22;0.73;;;0.20;;
6249;SDS011;3158;52.148;11.568;2023-01-13T08:24:23;0.10;;;0.10;;
6249;SDS011;3158;52.148;11.568;2023-01-13T08:29:24;0.15;;;0.15;;
6249;SDS011;3158;52.148;11.568;2023-01-13T08:34:25;0.10;;;0.10;;
6249;SDS011;3158;52.148;11.568;2023-01-13T08:39:26;2.70;;;0.20;;
6249;SDS011;3158;52.148;11.568;2023-01-13T08:44:28;0.15;;;0.10;;
6249;SDS011;3158;52.148;11.568;2023-01-13T08:49:29;0.35;;;0.20;;
6249;SDS011;3158;52.148;11.568;2023-01-13T08:54:30;0.38;;;0.10;;
6249;SDS011;3158;52.148;11.568;2023-01-13T08:59:32;0.20;;;0.20;;
6249;SDS011;3158;52.148;11.568;2023-01-13T09:04:33;0.10;;;0.10;;
6249;SDS011;3158;52.148;11.568;2023-01-13T09:09:34;0.32;;;0.20;;
6249;SDS011;3158;52.148;11.568;2023-01-13T09:14:36;0.20;;;0.20;;
6249;SDS011;3158;52.148;11.568;2023-01-13T09:19:38;0.68;;;0.20;;
6249;SDS011;3158;52.148;11.568;2023-01-13T09:24:39;0.82;;;0.20;;
6249;SDS011;3158;52.148;11.568;2023-01-13T09:29:40;1.20;;;0.30;;
6249;SDS011;3158;52.148;11.568;2023-01-13T09:34:41;0.10;;;0.10;;
6249;SDS011;3158;52.148;11.568;2023-01-13T09:40:01;1.17;;;0.10;;
6249;SDS011;3158;52.148;11.568;2023-01-13T09:45:04;2.35;;;0.32;;
6249;SDS011;3158;52.148;11.568;2023-01-13T09:50:14;2.35;;;0.20;;
6249;SDS011;3158;52.148;11.568;2023-01-13T09:55:33;0.60;;;0.50;;
6249;SDS011;3158;52.148;11.568;2023-01-13T10:00:38;3.10;;;0.28;;
6249;SDS011;3158;52.148;11.568;2023-01-13T10:05:44;3.45;;;0.32;;
6249;SDS011;3158;52.148;11.568;2023-01-13T10:10:50;0.55;;;0.10;;
6249;SDS011;3158;52.148;11.568;2023-01-13T10:15:55;2.42;;;0.30;;
6249;SDS011;3158;52.148;11.568;2023-01-13T10:21:01;2.47;;;0.40;;
6249;SDS011;3158;52.148;11.568;2023-01-13T10:26:09;2.95;;;0.22;;
6249;SDS011;3158;52.148;11.568;2023-01-13T10:31:13;0.28;;;0.22;;
6249;SDS011;3158;52.148;11.568;2023-01-13T10:36:17;0.52;;;0.30;;
6249;SDS011;3158;52.148;11.568;2023-01-13T10:41:24;3.67;;;0.20;;
6249;SDS011;3158;52.148;11.568;2023-01-13T10:46:25;1.20;;;0.30;;
6249;SDS011;3158;52.148;11.568;2023-01-13T10:51:27;0.95;;;0.35;;
6249;SDS011;3158;52.148;11.568;2023-01-13T10:56:30;0.32;;;0.20;;
6249;SDS011;3158;52.148;11.568;2023-01-13T11:01:31;0.32;;;0.32;;
6249;SDS011;3158;52.148;11.568;2023-01-13T11:06:32;0.20;;;0.20;;
6249;SDS011;3158;52.148;11.568;2023-01-13T11:11:39;5.70;;;0.50;;
6249;SDS011;3158;52.148;11.568;2023-01-13T11:16:41;1.35;;;0.47;;
6249;SDS011;3158;52.148;11.568;2023-01-13T11:27:14;1.90;;;0.30;;
6249;SDS011;3158;52.148;11.568;2023-01-13T11:32:16;4.18;;;0.40;;
6249;SDS011;3158;52.148;11.568;2023-01-13T11:37:20;1.85;;;0.20;;
6249;SDS011;3158;52.148;11.568;2023-01-13T11:42:31;3.25;;;0.30;;
6249;SDS011;3158;52.148;11.568;2023-01-13T11:47:35;1.42;;;0.40;;
6249;SDS011;3158;52.148;11.568;2023-01-13T11:52:53;2.28;;;0.25;;
6249;SDS011;3158;52.148;11.568;2023-01-13T12:03:40;1.10;;;0.45;;
6249;SDS011;3158;52.148;11.568;2023-01-13T12:08:22;1.52;;;0.40;;
6249;SDS011;3158;52.148;11.568;2023-01-13T12:13:39;4.72;;;0.40;;
6249;SDS011;3158;52.148;11.568;2023-01-13T12:29:37;1.85;;;0.30;;
6249;SDS011;3158;52.148;11.568;2023-01-13T12:35:03;1.30;;;0.32;;
6249;SDS011;3158;52.148;11.568;2023-01-13T12:40:21;0.70;;;0.30;;
6249;SDS011;3158;52.148;11.568;2023-01-13T12:45:25;1.00;;;0.40;;
6249;SDS011;3158;52.148;11.568;2023-01-13T12:55:34;4.00;;;0.40;;
6249;SDS011;3158;52.148;11.568;2023-01-13T13:11:01;5.43;;;0.57;;
6249;SDS011;3158;52.148;11.568;2023-01-13T13:21:24;1.65;;;0.45;;
6249;SDS011;3158;52.148;11.568;2023-01-13T13:26:45;3.60;;;0.60;;
6249;SDS011;3158;52.148;11.568;2023-01-13T13:32:00;1.45;;;0.20;;
6249;SDS011;3158;52.148;11.568;2023-01-13T13:42:14;1.65;;;0.30;;
6249;SDS011;3158;52.148;11.568;2023-01-13T13:47:36;1.73;;;0.50;;
6249;SDS011;3158;52.148;11.568;2023-01-13T13:52:39;0.65;;;0.25;;
6249;SDS011;3158;52.148;11.568;2023-01-13T13:57:43;9.43;;;0.43;;
6249;SDS011;3158;52.148;11.568;2023-01-13T14:02:46;2.30;;;0.30;;
6249;SDS011;3158;52.148;11.568;2023-01-13T14:07:49;0.75;;;0.30;;
6249;SDS011;3158;52.148;11.568;2023-01-13T14:12:50;0.98;;;0.32;;
6249;SDS011;3158;52.148;11.568;2023-01-13T14:17:51;0.38;;;0.20;;
6249;SDS011;3158;52.148;11.568;2023-01-13T14:22:53;1.40;;;0.20;;
6249;SDS011;3158;52.148;11.568;2023-01-13T14:28:04;3.55;;;0.35;;
6249;SDS011;3158;52.148;11.568;2023-01-13T14:33:07;0.75;;;0.30;;
6249;SDS011;3158;52.148;11.568;2023-01-13T14:38:14;0.20;;;0.20;;
6249;SDS011;3158;52.148;11.568;2023-01-13T14:43:16;1.58;;;0.20;;
6249;SDS011;3158;52.148;11.568;2023-01-13T14:48:18;4.53;;;0.70;;
6249;SDS011;3158;52.148;11.568;2023-01-13T14:53:54;0.80;;;0.40;;
6249;SDS011;3158;52.148;11.568;2023-01-13T14:58:48;0.35;;;0.35;;
6249;SDS011;3158;52.148;11.568;2023-01-13T15:03:49;2.72;;;0.52;;
6249;SDS011;3158;52.148;11.568;2023-01-13T15:08:50;0.70;;;0.50;;
6249;SDS011;3158;52.148;11.568;2023-01-13T15:13:54;3.50;;;0.60;;
6249;SDS011;3158;52.148;11.568;2023-01-13T15:18:56;5.45;;;0.60;;
6249;SDS011;3158;52.148;11.568;2023-01-13T15:23:58;0.88;;;0.75;;
6249;SDS011;3158;52.148;11.568;2023-01-13T15:28:59;0.88;;;0.50;;
6249;SDS011;3158;52.148;11.568;2023-01-13T15:34:00;5.22;;;1.17;;
6249;SDS011;3158;52.148;11.568;2023-01-13T15:39:01;4.93;;;1.80;;
6249;SDS011;3158;52.148;11.568;2023-01-13T15:44:02;3.22;;;2.08;;
6249;SDS011;3158;52.148;11.568;2023-01-13T15:49:35;9.23;;;1.02;;
6249;SDS011;3158;52.148;11.568;2023-01-13T15:54:37;2.20;;;0.50;;
6249;SDS011;3158;52.148;11.568;2023-01-13T15:59:38;0.65;;;0.38;;
6249;SDS011;3158;52.148;11.568;2023-01-13T16:04:39;2.97;;;0.40;;
6249;SDS011;3158;52.148;11.568;2023-01-13T16:09:41;3.65;;;0.30;;
6249;SDS011;3158;52.148;11.568;2023-01-13T16:14:42;0.93;;;0.50;;
6249;SDS011;3158;52.148;11.568;2023-01-13T16:19:43;2.38;;;0.50;;
6249;SDS011;3158;52.148;11.568;2023-01-13T16:24:45;0.50;;;0.40;;
6249;SDS011;3158;52.148;11.568;2023-01-13T16:29:47;0.60;;;0.30;;
6249;SDS011;3158;52.148;11.568;2023-01-13T16:34:48;1.10;;;0.20;;
6249;SDS011;3158;52.148;11.568;2023-01-13T16:39:50;2.40;;;0.55;;
6249;SDS011;3158;52.148;11.568;2023-01-13T16:44:51;1.15;;;0.20;;
6249;SDS011;3158;52.148;11.568;2023-01-13T16:49:52;1.88;;;0.30;;
6249;SDS011;3158;52.148;11.568;2023-01-13T16:54:53;3.30;;;0.50;;
6249;SDS011;3158;52.148;11.568;2023-01-13T16:59:54;2.92;;;0.70;;
6249;SDS011;3158;52.148;11.568;2023-01-13T17:04:55;4.18;;;0.47;;
6249;SDS011;3158;52.148;11.568;2023-01-13T17:09:56;4.72;;;0.95;;
6249;SDS011;3158;52.148;11.568;2023-01-13T17:14:57;0.43;;;0.43;;
6249;SDS011;3158;52.148;11.568;2023-01-13T17:19:58;1.98;;;0.60;;
6249;SDS011;3158;52.148;11.568;2023-01-13T17:24:59;5.47;;;0.82;;
6249;SDS011;3158;52.148;11.568;2023-01-13T17:30:00;1.35;;;0.75;;
6249;SDS011;3158;52.148;11.568;2023-01-13T17:35:01;4.70;;;0.65;;
6249;SDS011;3158;52.148;11.568;2023-01-13T17:40:03;1.23;;;0.75;;
6249;SDS011;3158;52.148;11.568;2023-01-13T17:45:04;0.43;;;0.40;;
6249;SDS011;3158;52.148;11.568;2023-01-13T17:50:06;2.58;;;0.43;;
6249;SDS011;3158;52.148;11.568;2023-01-13T17:55:07;0.40;;;0.20;;
6249;SDS011;3158;52.148;11.568;2023-01-13T18:00:08;1.08;;;0.50;;
6249;SDS011;3158;52.148;11.568;2023-01-13T18:05:13;2.47;;;0.40;;
6249;SDS011;3158;52.148;11.568;2023-01-13T18:10:15;1.58;;;0.50;;
6249;SDS011;3158;52.148;11.568;2023-01-13T18:15:16;1.27;;;0.40;;
6249;SDS011;3158;52.148;11.568;2023-01-13T18:20:17;3.63;;;0.32;;
6249;SDS011;3158;52.148;11.568;2023-01-13T18:25:38;2.65;;;0.60;;
6249;SDS011;3158;52.148;11.568;2023-01-13T18:30:58;0.70;;;0.40;;
6249;SDS011;3158;52.148;11.568;2023-01-13T18:36:04;3.63;;;0.43;;
6249;SDS011;3158;52.148;11.568;2023-01-13T18:41:05;2.25;;;0.35;;
6249;SDS011;3158;52.148;11.568;2023-01-13T18:46:26;0.40;;;0.40;;
6249;SDS011;3158;52.148;11.568;2023-01-13T18:51:27;3.25;;;0.73;;
6249;SDS011;3158;52.148;11.568;2023-01-13T18:56:28;1.50;;;0.50;;
6249;SDS011;3158;52.148;11.568;2023-01-13T19:01:30;0.85;;;0.50;;
6249;SDS011;3158;52.148;11.568;2023-01-13T19:06:31;1.20;;;0.50;;
6249;SDS011;3158;52.148;11.568;2023-01-13T19:11:33;0.57;;;0.50;;
6249;SDS011;3158;52.148;11.568;2023-01-13T19:16:35;0.40;;;0.40;;
6249;SDS011;3158;52.148;11.568;2023-01-13T19:21:36;2.13;;;0.50;;
6249;SDS011;3158;52.148;11.568;2023-01-13T19:26:37;1.75;;;0.50;;
6249;SDS011;3158;52.148;11.568;2023-01-13T19:31:38;0.88;;;0.40;;
6249;SDS011;3158;52.148;11.568;2023-01-13T19:36:39;1.75;;;0.50;;
6249;SDS011;3158;52.148;11.568;2023-01-13T19:41:40;3.53;;;1.02;;
6249;SDS011;3158;52.148;11.568;2023-01-13T19:46:59;0.93;;;0.63;;
6249;SDS011;3158;52.148;11.568;2023-01-13T19:52:02;2.45;;;0.90;;
6249;SDS011;3158;52.148;11.568;2023-01-13T19:57:04;1.80;;;0.50;;
6249;SDS011;3158;52.148;11.568;2023-01-13T20:02:12;0.63;;;0.63;;
6249;SDS011;3158;52.148;11.568;2023-01-13T20:07:14;2.17;;;0.40;;
6249;SDS011;3158;52.148;11.568;2023-01-13T20:12:15;0.75;;;0.60;;
6249;SDS011;3158;52.148;11.568;2023-01-13T20:17:17;1.98;;;0.30;;
6249;SDS011;3158;52.148;11.568;2023-01-13T20:22:18;1.42;;;0.40;;
6249;SDS011;3158;52.148;11.568;2023-01-13T20:27:20;2.13;;;0.57;;
6249;SDS011;3158;52.148;11.568;2023-01-13T20:32:22;1.48;;;0.77;;
6249;SDS011;3158;52.148;11.568;2023-01-13T20:37:23;1.25;;;0.50;;
6249;SDS011;3158;52.148;11.568;2023-01-13T20:42:24;0.60;;;0.60;;
6249;SDS011;3158;52.148;11.568;2023-01-13T20:47:29;0.82;;;0.50;;
6249;SDS011;3158;52.148;11.568;2023-01-13T20:52:30;2.95;;;0.68;;
6249;SDS011;3158;52.148;11.568;2023-01-13T20:57:31;0.68;;;0.50;;
6249;SDS011;3158;52.148;11.568;2023-01-13T21:02:32;2.67;;;0.57;;
6249;SDS011;3158;52.148;11.568;2023-01-13T21:07:33;3.85;;;0.50;;
6249;SDS011;3158;52.148;11.568;2023-01-13T21:12:34;0.50;;;0.50;;
6249;SDS011;3158;52.148;11.568;2023-01-13T21:17:54;6.05;;;0.77;;
6249;SDS011;3158;52.148;11.568;2023-01-13T21:23:14;1.33;;;0.50;;
6249;SDS011;3158;52.148;11.568;2023-01-13T21:28:16;1.73;;;0.50;;
6249;SDS011;3158;52.148;11.568;2023-01-13T21:33:17;2.97;;;0.70;;
6249;SDS011;3158;52.148;11.568;2023-01-13T21:38:18;2.55;;;0.77;;
6249;SDS011;3158;52.148;11.568;2023-01-13T21:43:19;1.70;;;0.65;;
6249;SDS011;3158;52.148;11.568;2023-01-13T21:48:39;1.08;;;0.70;;
6249;SDS011;3158;52.148;11.568;2023-01-13T21:53:40;2.30;;;0.50;;
6249;SDS011;3158;52.148;11.568;2023-01-13T21:58:41;1.58;;;0.80;;
6249;SDS011;3158;52.148;11.568;2023-01-13T22:03:42;1.55;;;0.55;;
6249;SDS011;3158;52.148;11.568;2023-01-13T22:09:02;2.10;;;0.57;;
6249;SDS011;3158;52.148;11.568;2023-01-13T22:14:03;1.35;;;0.47;;
6249;SDS011;3158;52.148;11.568;2023-01-13T22:19:12;1.30;;;0.60;;
6249;SDS011;3158;52.148;11.568;2023-01-13T22:24:13;1.40;;;1.00;;
6249;SDS011;3158;52.148;11.568;2023-01-13T22:29:15;1.88;;;0.73;;
6249;SDS011;3158;52.148;11.568;2023-01-13T22:34:16;2.05;;;0.60;;
6249;SDS011;3158;52.148;11.568;2023-01-13T22:39:18;4.18;;;0.90;;
6249;SDS011;3158;52.148;11.568;2023-01-13T22:44:20;1.88;;;0.80;;
6249;SDS011;3158;52.148;11.568;2023-01-13T22:49:21;1.30;;;0.73;;
6249;SDS011;3158;52.148;11.568;2023-01-13T22:54:22;0.95;;;0.60;;
6249;SDS011;3158;52.148;11.568;2023-01-13T22:59:23;0.70;;;0.40;;
6249;SDS011;3158;52.148;11.568;2023-01-13T23:04:25;2.28;;;0.50;;
6249;SDS011;3158;52.148;11.568;2023-01-13T23:09:26;2.35;;;0.50;;
6249;SDS011;3158;52.148;11.568;2023-01-13T23:14:29;0.93;;;0.52;;
6249;SDS011;3158;52.148;11.568;2023-01-13T23:19:31;3.05;;;0.60;;
6249;SDS011;3158;52.148;11.568;2023-01-13T23:24:32;3.67;;;0.80;;
6249;SDS011;3158;52.148;11.568;2023-01-13T23:29:33;2.72;;;0.73;;
6249;SDS011;3158;52.148;11.568;2023-01-13T23:34:34;0.82;;;0.50;;
6249;SDS011;3158;52.148;11.568;2023-01-13T23:39:35;1.20;;;0.68;;
6249;SDS011;3158;52.148;11.568;2023-01-13T23:44:36;3.33;;;1.02;;
6249;SDS011;3158;52.148;11.568;2023-01-13T23:49:37;2.65;;;0.80;;
6249;SDS011;3158;52.148;11.568;2023-01-13T23:54:39;6.15;;;1.00;;
6249;SDS011;3158;52.148;11.568;2023-01-13T23:59:40;2.20;;;0.77;;
